createdAt,value
2023-04-12T00:00:52.414Z,2.65
2023-04-12T00:02:33.175Z,2.65
2023-04-12T00:04:13.463Z,2.64
2023-04-12T00:05:53.715Z,2.62
2023-04-12T00:07:34.109Z,2.6
2023-04-12T00:09:14.426Z,2.61
2023-04-12T00:10:54.862Z,2.61
2023-04-12T00:12:35.298Z,2.61
2023-04-12T00:14:15.653Z,2.6
2023-04-12T00:15:56.127Z,2.6
2023-04-12T00:17:36.542Z,2.65
2023-04-12T00:19:16.842Z,2.67
2023-04-12T00:20:57.202Z,2.69
2023-04-12T00:22:37.683Z,2.72
2023-04-12T00:24:18.148Z,2.75
2023-04-12T00:25:58.572Z,2.77
2023-04-12T00:27:38.956Z,2.72
2023-04-12T00:29:19.297Z,2.72
2023-04-12T00:30:59.687Z,2.69
2023-04-12T00:32:40.024Z,2.72
2023-04-12T00:34:20.403Z,2.68
2023-04-12T00:36:00.820Z,2.69
2023-04-12T00:37:41.092Z,2.69
2023-04-12T00:39:21.504Z,2.71
2023-04-12T00:41:01.815Z,2.69
2023-04-12T00:42:42.119Z,2.69
2023-04-12T00:44:22.559Z,2.74
2023-04-12T00:46:03.014Z,2.72
2023-04-12T00:47:43.652Z,2.72
2023-04-12T00:49:23.912Z,2.74
2023-04-12T00:51:04.422Z,2.84
2023-04-12T00:52:44.900Z,2.84
2023-04-12T00:54:25.196Z,2.87
2023-04-12T00:56:05.531Z,2.88
2023-04-12T00:57:45.963Z,2.92
2023-04-12T00:59:26.368Z,3
2023-04-12T01:01:06.937Z,3.06
2023-04-12T01:02:47.952Z,3.1
2023-04-12T01:04:27.722Z,3.16
2023-04-12T01:06:08.166Z,3.22
2023-04-12T01:07:48.589Z,3.23
2023-04-12T01:09:28.873Z,3.27
2023-04-12T01:11:09.314Z,3.29
2023-04-12T01:12:49.608Z,3.31
2023-04-12T01:14:29.900Z,3.36
2023-04-12T01:16:10.261Z,3.36
2023-04-12T01:17:50.682Z,3.4
2023-04-12T01:19:31.009Z,3.44
2023-04-12T01:21:11.381Z,3.46
2023-04-12T01:22:51.777Z,3.56
2023-04-12T01:24:32.184Z,3.54
2023-04-12T01:26:12.598Z,3.56
2023-04-12T01:27:53.020Z,3.58
2023-04-12T01:29:33.446Z,3.57
2023-04-12T01:31:13.852Z,3.58
2023-04-12T01:32:54.218Z,3.61
2023-04-12T01:34:34.600Z,3.61
2023-04-12T01:36:14.978Z,3.64
2023-04-12T01:37:55.366Z,3.61
2023-04-12T01:39:35.879Z,3.66
2023-04-12T01:41:16.332Z,3.67
2023-04-12T01:42:56.674Z,3.66
2023-04-12T01:44:37.022Z,3.67
2023-04-12T01:46:17.668Z,3.66
2023-04-12T01:47:57.837Z,3.67
2023-04-12T01:49:38.266Z,3.68
2023-04-12T01:51:18.708Z,3.7
2023-04-12T01:52:59.080Z,3.7
2023-04-12T01:54:39.415Z,3.74
2023-04-12T01:56:19.797Z,3.71
2023-04-12T01:58:00.144Z,3.7
2023-04-12T01:59:40.422Z,3.73
2023-04-12T02:01:20.759Z,3.77
2023-04-12T02:03:01.249Z,3.74
2023-04-12T02:04:41.559Z,3.77
2023-04-12T02:06:21.925Z,3.79
2023-04-12T02:08:02.395Z,3.82
2023-04-12T02:09:42.828Z,3.84
2023-04-12T02:11:23.177Z,3.89
2023-04-12T02:13:03.542Z,3.89
2023-04-12T02:14:44.090Z,3.92
2023-04-12T02:16:24.453Z,3.94
2023-04-12T02:18:04.934Z,3.98
2023-04-12T02:19:45.287Z,4.01
2023-04-12T02:21:25.654Z,4.04
2023-04-12T02:23:06.065Z,4.05
2023-04-12T02:24:46.418Z,4.06
2023-04-12T02:26:26.809Z,4.13
2023-04-12T02:28:07.329Z,4.17
2023-04-12T02:29:47.622Z,4.25
2023-04-12T02:31:28.051Z,4.28
2023-04-12T02:33:08.418Z,4.32
2023-04-12T02:34:48.759Z,4.29
2023-04-12T02:36:29.135Z,4.28
2023-04-12T02:38:09.624Z,4.3
2023-04-12T02:39:49.905Z,4.3
2023-04-12T02:41:30.230Z,4.3
2023-04-12T02:43:10.577Z,4.3
2023-04-12T02:44:50.818Z,4.28
2023-04-12T02:46:31.206Z,4.29
2023-04-12T02:48:11.545Z,4.28
2023-04-12T02:49:51.790Z,4.25
2023-04-12T02:51:32.109Z,4.29
2023-04-12T02:53:12.413Z,4.33
2023-04-12T02:54:52.758Z,4.4
2023-04-12T02:56:33.114Z,4.44
2023-04-12T02:58:13.636Z,4.47
2023-04-12T02:59:54.113Z,4.52
2023-04-12T03:01:34.461Z,4.56
2023-04-12T03:03:15.018Z,4.59
2023-04-12T03:04:55.228Z,4.59
2023-04-12T03:06:35.661Z,4.67
2023-04-12T03:08:17.125Z,4.73
2023-04-12T03:09:56.417Z,4.78
2023-04-12T03:11:36.921Z,4.84
2023-04-12T03:13:17.324Z,4.88
2023-04-12T03:14:57.740Z,4.95
2023-04-12T03:16:38.142Z,5.05
2023-04-12T03:18:18.639Z,5.07
2023-04-12T03:19:58.984Z,5.04
2023-04-12T03:21:39.324Z,5.02
2023-04-12T03:23:19.819Z,5.02
2023-04-12T03:25:00.219Z,5.02
2023-04-12T03:26:40.633Z,5.04
2023-04-12T03:28:20.936Z,5.07
2023-04-12T03:30:01.300Z,5.07
2023-04-12T03:31:41.654Z,5.08
2023-04-12T03:33:21.988Z,5.11
2023-04-12T03:35:02.433Z,5.08
2023-04-12T03:36:42.779Z,5.05
2023-04-12T03:38:23.131Z,5.04
2023-04-12T03:40:03.543Z,5.02
2023-04-12T03:41:43.924Z,4.98
2023-04-12T03:43:24.323Z,4.96
2023-04-12T03:45:04.756Z,4.92
2023-04-12T03:46:45.242Z,4.91
2023-04-12T03:48:25.551Z,4.9
2023-04-12T03:50:11.600Z,4.91
2023-04-12T03:51:46.312Z,4.95
2023-04-12T03:53:26.702Z,4.95
2023-04-12T03:55:07.392Z,5.01
2023-04-12T03:56:47.540Z,5.02
2023-04-12T03:58:27.905Z,5.08
2023-04-12T04:00:08.338Z,5.1
2023-04-12T04:01:48.783Z,5.08
2023-04-12T04:03:29.233Z,5.1
2023-04-12T04:05:09.557Z,5.08
2023-04-12T04:06:49.965Z,5.1
2023-04-12T04:08:30.341Z,5.11
2023-04-12T04:10:10.710Z,5.1
2023-04-12T04:11:51.049Z,5.12
2023-04-12T04:13:31.329Z,5.15
2023-04-12T04:15:11.721Z,5.15
2023-04-12T04:16:51.969Z,5.12
2023-04-12T04:18:32.274Z,5.11
2023-04-12T04:20:12.620Z,5.1
2023-04-12T04:21:53.019Z,5.11
2023-04-12T04:23:33.457Z,5.1
2023-04-12T04:25:13.960Z,5.12
2023-04-12T04:26:54.477Z,5.11
2023-04-12T04:28:35.226Z,5.1
2023-04-12T04:30:15.207Z,5.1
2023-04-12T04:31:55.517Z,5.07
2023-04-12T04:33:35.833Z,5.07
2023-04-12T04:35:16.251Z,5.05
2023-04-12T04:36:56.615Z,5.07
2023-04-12T04:38:37.003Z,5.04
2023-04-12T04:40:17.364Z,5.02
2023-04-12T04:41:57.790Z,5.04
2023-04-12T04:43:38.216Z,5.05
2023-04-12T04:45:18.556Z,5.07
2023-04-12T04:46:58.986Z,5.08
2023-04-12T04:48:39.416Z,5.07
2023-04-12T04:50:19.859Z,5.07
2023-04-12T04:52:00.181Z,5.08
2023-04-12T04:53:40.548Z,5.11
2023-04-12T04:55:20.948Z,5.07
2023-04-12T04:57:01.535Z,5.08
2023-04-12T04:58:41.892Z,5.12
2023-04-12T05:00:22.225Z,5.12
2023-04-12T05:02:02.680Z,5.14
2023-04-12T05:03:43.121Z,5.14
2023-04-12T05:05:23.589Z,5.16
2023-04-12T05:07:03.743Z,5.18
2023-04-12T05:08:44.083Z,5.21
2023-04-12T05:10:24.506Z,5.22
2023-04-12T05:12:04.925Z,5.22
2023-04-12T05:13:45.346Z,5.21
2023-04-12T05:15:25.753Z,5.19
2023-04-12T05:17:06.266Z,5.23
2023-04-12T05:18:46.560Z,5.23
2023-04-12T05:20:26.977Z,5.26
2023-04-12T05:22:07.459Z,5.29
2023-04-12T05:23:47.831Z,5.29
2023-04-12T05:25:28.267Z,5.33
2023-04-12T05:27:08.702Z,5.28
2023-04-12T05:28:49.108Z,5.33
2023-04-12T05:30:29.547Z,5.41
2023-04-12T05:32:09.817Z,5.46
2023-04-12T05:33:50.159Z,5.54
2023-04-12T05:35:30.697Z,5.63
2023-04-12T05:37:11.028Z,5.71
2023-04-12T05:38:51.361Z,5.81
2023-04-12T05:40:31.702Z,5.94
2023-04-12T05:42:11.965Z,6.04
2023-04-12T05:43:52.304Z,6.14
2023-04-12T05:45:32.660Z,6.26
2023-04-12T05:47:12.942Z,6.39
2023-04-12T05:48:53.243Z,6.49
2023-04-12T05:50:33.597Z,6.63
2023-04-12T05:52:14.041Z,6.73
2023-04-12T05:53:54.426Z,6.86
2023-04-12T05:55:37.318Z,6.94
2023-04-12T05:57:15.313Z,7.04
2023-04-12T05:58:56.012Z,7.12
2023-04-12T06:00:36.119Z,7.22
2023-04-12T06:02:16.495Z,7.29
2023-04-12T06:03:56.987Z,7.34
2023-04-12T06:05:37.391Z,7.39
2023-04-12T06:07:17.701Z,7.49
2023-04-12T06:08:58.333Z,7.52
2023-04-12T06:10:38.594Z,7.59
2023-04-12T06:12:19.036Z,7.67
2023-04-12T06:13:59.398Z,7.72
2023-04-12T06:15:39.833Z,7.77
2023-04-12T06:17:20.199Z,7.83
2023-04-12T06:19:00.809Z,7.87
2023-04-12T06:20:41.021Z,7.93
2023-04-12T06:22:21.357Z,7.94
2023-04-12T06:24:01.840Z,8
2023-04-12T06:25:42.154Z,8.01
2023-04-12T06:27:22.485Z,8.05
2023-04-12T06:29:02.865Z,8.1
2023-04-12T06:30:43.245Z,8.13
2023-04-12T06:32:23.588Z,8.17
2023-04-12T06:34:04.070Z,8.17
2023-04-12T06:35:44.556Z,8.18
2023-04-12T06:37:24.907Z,8.3
2023-04-12T06:39:05.339Z,8.34
2023-04-12T06:40:45.742Z,8.37
2023-04-12T06:42:26.252Z,8.41
2023-04-12T06:44:06.644Z,8.47
2023-04-12T06:45:47.110Z,8.52
2023-04-12T06:47:27.527Z,8.58
2023-04-12T06:49:07.940Z,8.58
2023-04-12T06:50:48.325Z,8.63
2023-04-12T06:52:28.722Z,8.66
2023-04-12T06:54:09.029Z,8.73
2023-04-12T06:55:49.359Z,8.75
2023-04-12T06:57:29.775Z,8.78
2023-04-12T06:59:10.081Z,8.78
2023-04-12T07:00:50.511Z,8.83
2023-04-12T07:02:30.868Z,8.83
2023-04-12T07:04:11.209Z,8.84
2023-04-12T07:05:51.591Z,8.9
2023-04-12T07:07:31.956Z,8.9
2023-04-12T07:09:12.287Z,8.92
2023-04-12T07:10:52.590Z,8.93
2023-04-12T07:12:32.947Z,8.94
2023-04-12T07:14:13.343Z,8.96
2023-04-12T07:15:53.759Z,8.96
2023-04-12T07:17:34.239Z,8.96
2023-04-12T07:19:14.572Z,8.94
2023-04-12T07:20:54.977Z,8.93
2023-04-12T07:22:35.366Z,8.89
2023-04-12T07:24:15.847Z,8.83
2023-04-12T07:25:56.266Z,8.79
2023-04-12T07:27:36.689Z,8.73
2023-04-12T07:29:17.155Z,8.72
2023-04-12T07:30:57.540Z,8.69
2023-04-12T07:32:38.124Z,8.68
2023-04-12T07:34:18.541Z,8.65
2023-04-12T07:35:58.899Z,8.68
2023-04-12T07:37:39.255Z,8.62
2023-04-12T07:39:19.739Z,8.61
2023-04-12T07:41:00.108Z,8.61
2023-04-12T07:42:40.511Z,8.59
2023-04-12T07:44:20.973Z,8.58
2023-04-12T07:46:01.365Z,8.55
2023-04-12T07:47:41.782Z,8.52
2023-04-12T07:49:22.108Z,8.49
2023-04-12T07:51:02.492Z,8.47
2023-04-12T07:52:42.924Z,8.44
2023-04-12T07:54:23.728Z,8.41
2023-04-12T07:56:03.693Z,8.37
2023-04-12T07:57:44.081Z,8.35
2023-04-12T07:59:24.481Z,8.3
2023-04-12T08:01:04.964Z,8.31
2023-04-12T08:02:45.502Z,8.3
2023-04-12T08:04:25.939Z,8.28
2023-04-12T08:06:06.254Z,8.25
2023-04-12T08:07:46.686Z,8.27
2023-04-12T08:09:27.117Z,8.21
2023-04-12T08:11:07.540Z,8.2
2023-04-12T08:12:47.978Z,8.17
2023-04-12T08:14:28.473Z,8.17
2023-04-12T08:16:08.808Z,8.18
2023-04-12T08:17:49.298Z,8.14
2023-04-12T08:19:29.623Z,8.1
2023-04-12T08:21:09.971Z,8.05
2023-04-12T08:22:50.314Z,8.01
2023-04-12T08:24:30.623Z,8.01
2023-04-12T08:26:10.905Z,7.97
2023-04-12T08:27:51.282Z,7.94
2023-04-12T08:29:31.593Z,7.97
2023-04-12T08:31:11.930Z,7.92
2023-04-12T08:32:52.258Z,7.93
2023-04-12T08:34:32.589Z,7.9
2023-04-12T08:36:13.122Z,7.87
2023-04-12T08:37:53.509Z,7.86
2023-04-12T08:39:34.035Z,7.86
2023-04-12T08:41:15.216Z,7.86
2023-04-12T08:42:54.825Z,7.87
2023-04-12T08:44:35.239Z,7.86
2023-04-12T08:46:16.050Z,7.87
2023-04-12T08:47:56.014Z,7.86
2023-04-12T08:49:36.355Z,7.9
2023-04-12T08:51:16.691Z,7.9
2023-04-12T08:52:57.136Z,7.94
2023-04-12T08:54:37.522Z,7.96
2023-04-12T08:56:17.855Z,8
2023-04-12T08:57:58.227Z,8
2023-04-12T08:59:38.577Z,8.01
2023-04-12T09:01:19.103Z,8.05
2023-04-12T09:02:59.582Z,8.08
2023-04-12T09:04:39.966Z,8.13
2023-04-12T09:06:20.304Z,8.18
2023-04-12T09:08:00.648Z,8.25
2023-04-12T09:09:41.000Z,8.3
2023-04-12T09:11:21.353Z,8.4
2023-04-12T09:13:01.807Z,8.48
2023-04-12T09:14:42.226Z,8.61
2023-04-12T09:16:22.769Z,8.65
2023-04-12T09:18:03.091Z,8.73
2023-04-12T09:19:43.512Z,8.83
2023-04-12T09:21:23.922Z,8.9
2023-04-12T09:23:04.242Z,8.96
2023-04-12T09:24:44.751Z,8.98
2023-04-12T09:26:25.208Z,8.98
2023-04-12T09:28:05.597Z,8.99
2023-04-12T09:29:46.055Z,8.99
2023-04-12T09:31:26.642Z,9.03
2023-04-12T09:33:07.032Z,8.98
2023-04-12T09:34:47.299Z,8.93
2023-04-12T09:36:27.661Z,8.86
2023-04-12T09:38:08.092Z,8.79
2023-04-12T09:39:48.474Z,8.83
2023-04-12T09:41:28.736Z,8.8
2023-04-12T09:43:09.053Z,8.76
2023-04-12T09:44:49.594Z,8.73
2023-04-12T09:46:30.114Z,8.71
2023-04-12T09:48:10.337Z,8.75
2023-04-12T09:49:50.801Z,8.75
2023-04-12T09:51:31.218Z,8.83
2023-04-12T09:53:11.527Z,8.9
2023-04-12T09:54:51.967Z,8.96
2023-04-12T09:56:32.548Z,9
2023-04-12T09:58:12.717Z,9.03
2023-04-12T09:59:52.998Z,9.03
2023-04-12T10:01:33.474Z,9.06
2023-04-12T10:03:13.950Z,9.07
2023-04-12T10:04:54.366Z,9.07
2023-04-12T10:06:34.700Z,9.03
2023-04-12T10:08:15.173Z,9.1
2023-04-12T10:09:55.543Z,9.17
2023-04-12T10:11:35.903Z,9.13
2023-04-12T10:13:16.255Z,9.13
2023-04-12T10:14:56.564Z,9.13
2023-04-12T10:16:37.050Z,9.14
2023-04-12T10:18:17.434Z,9.14
2023-04-12T10:19:57.806Z,9.11
2023-04-12T10:21:38.171Z,9.09
2023-04-12T10:23:18.545Z,9.09
2023-04-12T10:24:58.917Z,9.09
2023-04-12T10:26:39.350Z,9.11
2023-04-12T10:28:19.842Z,9.13
2023-04-12T10:30:00.278Z,9.21
2023-04-12T10:31:40.713Z,9.26
2023-04-12T10:33:21.262Z,9.26
2023-04-12T10:35:01.567Z,9.23
2023-04-12T10:36:41.924Z,9.2
2023-04-12T10:38:22.314Z,9.19
2023-04-12T10:40:02.698Z,9.17
2023-04-12T10:41:43.106Z,9.21
2023-04-12T10:43:23.549Z,9.29
2023-04-12T10:45:03.849Z,9.35
2023-04-12T10:46:44.274Z,9.42
2023-04-12T10:48:24.733Z,9.51
2023-04-12T10:50:05.063Z,9.54
2023-04-12T10:51:45.471Z,9.55
2023-04-12T10:53:25.827Z,9.54
2023-04-12T10:55:06.265Z,9.54
2023-04-12T10:56:46.696Z,9.52
2023-04-12T10:58:27.102Z,9.54
2023-04-12T11:00:07.413Z,9.54
2023-04-12T11:01:47.789Z,9.52
2023-04-12T11:03:28.189Z,9.52
2023-04-12T11:05:08.598Z,9.52
2023-04-12T11:06:48.875Z,9.54
2023-04-12T11:08:29.382Z,9.59
2023-04-12T11:10:09.796Z,9.62
2023-04-12T11:11:50.257Z,9.66
2023-04-12T11:13:30.703Z,9.75
2023-04-12T11:15:11.043Z,9.75
2023-04-12T11:16:51.512Z,9.78
2023-04-12T11:18:32.001Z,9.81
2023-04-12T11:20:12.417Z,9.81
2023-04-12T11:21:52.713Z,9.79
2023-04-12T11:23:33.150Z,9.74
2023-04-12T11:25:13.542Z,9.71
2023-04-12T11:26:54.010Z,9.65
2023-04-12T11:28:35.519Z,9.58
2023-04-12T11:30:14.858Z,9.57
2023-04-12T11:31:55.313Z,9.55
2023-04-12T11:33:35.659Z,9.55
2023-04-12T11:35:16.057Z,9.57
2023-04-12T11:36:56.472Z,9.59
2023-04-12T11:38:36.992Z,9.61
2023-04-12T11:40:17.404Z,9.68
2023-04-12T11:41:57.833Z,9.75
2023-04-12T11:43:38.360Z,9.89
2023-04-12T11:45:18.797Z,9.99
2023-04-12T11:46:59.092Z,10.1
2023-04-12T11:48:39.679Z,10.19
2023-04-12T11:50:19.916Z,10.26
2023-04-12T11:52:00.329Z,10.32
2023-04-12T11:53:40.721Z,10.36
2023-04-12T11:55:21.082Z,10.47
2023-04-12T11:57:02.884Z,10.51
2023-04-12T11:58:41.924Z,10.58
2023-04-12T12:00:22.312Z,10.58
2023-04-12T12:02:10.871Z,10.61
2023-04-12T12:03:43.515Z,10.71
2023-04-12T12:05:23.798Z,10.78
2023-04-12T12:07:04.236Z,10.79
2023-04-12T12:08:44.489Z,10.85
2023-04-12T12:10:40.080Z,10.84
2023-04-12T12:12:05.368Z,10.81
2023-04-12T12:13:45.736Z,10.86
2023-04-12T12:15:26.052Z,10.86
2023-04-12T12:17:06.448Z,10.9
2023-04-12T12:18:46.872Z,10.92
2023-04-12T12:20:27.292Z,10.96
2023-04-12T12:22:07.711Z,11.08
2023-04-12T12:23:48.048Z,11.11
2023-04-12T12:25:28.414Z,11.13
2023-04-12T12:27:08.889Z,11.15
2023-04-12T12:28:49.232Z,11.12
2023-04-12T12:30:29.623Z,11.11
2023-04-12T12:32:09.979Z,11.12
2023-04-12T12:33:50.302Z,11.15
2023-04-12T12:35:30.632Z,11.19
2023-04-12T12:37:11.036Z,11.26
2023-04-12T12:38:51.552Z,11.26
2023-04-12T12:40:31.788Z,11.29
2023-04-12T12:42:12.220Z,11.36
2023-04-12T12:43:52.802Z,11.37
2023-04-12T12:45:33.172Z,11.32
2023-04-12T12:47:14.783Z,11.27
2023-04-12T12:48:53.910Z,11.26
2023-04-12T12:50:34.330Z,11.26
2023-04-12T12:52:16.549Z,11.23
2023-04-12T12:53:55.059Z,11.22
2023-04-12T12:55:35.493Z,11.22
2023-04-12T12:57:15.959Z,11.19
2023-04-12T12:58:56.696Z,11.18
2023-04-12T13:00:36.802Z,11.16
2023-04-12T13:02:17.255Z,11.16
2023-04-12T13:03:57.762Z,11.23
2023-04-12T13:05:38.170Z,11.27
2023-04-12T13:07:18.620Z,11.3
2023-04-12T13:08:59.229Z,11.27
2023-04-12T13:10:39.444Z,11.29
2023-04-12T13:12:19.811Z,11.32
2023-04-12T13:14:00.212Z,11.4
2023-04-12T13:15:40.616Z,11.44
2023-04-12T13:17:21.111Z,11.47
2023-04-12T13:19:01.455Z,11.46
2023-04-12T13:20:41.868Z,11.54
2023-04-12T13:22:22.308Z,11.71
2023-04-12T13:24:02.743Z,12.04
2023-04-12T13:25:43.217Z,12.24
2023-04-12T13:27:23.639Z,12.73
2023-04-12T13:29:04.153Z,13.38
2023-04-12T13:30:44.511Z,13.72
2023-04-12T13:32:24.830Z,13.97
2023-04-12T13:34:05.092Z,14.67
2023-04-12T13:35:45.527Z,14.79
2023-04-12T13:37:25.874Z,14.89
2023-04-12T13:39:06.272Z,14.57
2023-04-12T13:40:46.669Z,14.72
2023-04-12T13:42:26.977Z,14.55
2023-04-12T13:44:07.484Z,14.61
2023-04-12T13:45:47.865Z,14.99
2023-04-12T13:47:28.311Z,15.11
2023-04-12T13:49:08.576Z,15.14
2023-04-12T13:50:50.605Z,15.14
2023-04-12T13:52:29.445Z,15.16
2023-04-12T13:54:09.807Z,15.06
2023-04-12T13:55:50.435Z,15.71
2023-04-12T13:57:30.713Z,15.99
2023-04-12T13:59:11.106Z,16.08
2023-04-12T14:00:51.500Z,16.33
2023-04-12T14:02:32.054Z,16.17
2023-04-12T14:04:12.432Z,15.94
2023-04-12T14:05:52.777Z,15.86
2023-04-12T14:07:33.156Z,15.84
2023-04-12T14:09:13.556Z,15.71
2023-04-12T14:10:53.919Z,15.71
2023-04-12T14:12:34.290Z,15.78
2023-04-12T14:14:16.665Z,15.67
2023-04-12T14:15:55.162Z,15.75
2023-04-12T14:17:35.676Z,15.91
2023-04-12T14:19:15.960Z,16.05
2023-04-12T14:20:56.378Z,16.01
2023-04-12T14:22:36.791Z,15.89
2023-04-12T14:24:17.205Z,15.81
2023-04-12T14:25:57.637Z,15.65
2023-04-12T14:27:38.052Z,16.05
2023-04-12T14:29:18.465Z,16.43
2023-04-12T14:30:58.865Z,16.57
2023-04-12T14:32:39.318Z,16.67
2023-04-12T14:34:19.681Z,16.49
2023-04-12T14:36:00.162Z,16.19
2023-04-12T14:37:40.596Z,15.98
2023-04-12T14:39:20.970Z,15.94
2023-04-12T14:41:01.480Z,16.22
2023-04-12T14:42:41.800Z,16.34
2023-04-12T14:44:24.708Z,16.47
2023-04-12T14:46:02.640Z,16.54
2023-04-12T14:47:43.077Z,16.61
2023-04-12T14:49:23.445Z,16.57
2023-04-12T14:51:03.834Z,16.53
2023-04-12T14:52:44.221Z,16.53
2023-04-12T14:54:24.724Z,16.4
2023-04-12T14:56:05.168Z,16.34
2023-04-12T14:57:45.576Z,16.42
2023-04-12T14:59:26.071Z,16.3
2023-04-12T15:01:06.324Z,16.2
2023-04-12T15:02:46.820Z,16.2
2023-04-12T15:04:27.136Z,16.11
2023-04-12T15:06:07.447Z,15.95
2023-04-12T15:07:49.116Z,15.77
2023-04-12T15:09:28.245Z,15.57
2023-04-12T15:11:08.698Z,15.41
2023-04-12T15:12:49.100Z,15.31
2023-04-12T15:14:29.582Z,15.23
2023-04-12T15:16:09.979Z,15.05
2023-04-12T15:17:50.348Z,14.9
2023-04-12T15:19:30.727Z,14.86
2023-04-12T15:21:11.120Z,14.74
2023-04-12T15:22:51.450Z,14.61
2023-04-12T15:24:31.895Z,14.55
2023-04-12T15:26:12.350Z,14.53
2023-04-12T15:27:52.733Z,14.45
2023-04-12T15:29:33.122Z,14.38
2023-04-12T15:31:13.534Z,14.23
2023-04-12T15:32:54.058Z,14.24
2023-04-12T15:34:34.429Z,14.19
2023-04-12T15:36:14.803Z,14.11
2023-04-12T15:37:55.590Z,14.02
2023-04-12T15:39:35.718Z,13.92
2023-04-12T15:41:16.051Z,13.87
2023-04-12T15:42:56.449Z,13.79
2023-04-12T15:44:36.911Z,13.73
2023-04-12T15:46:17.348Z,13.7
2023-04-12T15:47:57.663Z,13.62
2023-04-12T15:49:38.000Z,13.54
2023-04-12T15:51:18.399Z,13.44
2023-04-12T15:52:58.699Z,13.34
2023-04-12T15:54:40.606Z,13.29
2023-04-12T15:56:19.543Z,13.19
2023-04-12T15:57:59.924Z,13.08
2023-04-12T15:59:40.283Z,12.97
2023-04-12T16:01:20.826Z,12.93
2023-04-12T16:03:01.247Z,12.88
2023-04-12T16:04:41.681Z,12.82
2023-04-12T16:06:21.902Z,12.76
2023-04-12T16:08:02.346Z,12.67
2023-04-12T16:09:42.807Z,12.5
2023-04-12T16:11:23.217Z,12.29
2023-04-12T16:13:03.626Z,12.15
2023-04-12T16:14:44.051Z,12
2023-04-12T16:16:24.452Z,11.85
2023-04-12T16:18:07.873Z,11.73
2023-04-12T16:19:45.142Z,11.59
2023-04-12T16:21:25.432Z,11.49
2023-04-12T16:23:05.838Z,11.39
2023-04-12T16:24:46.190Z,11.39
2023-04-12T16:26:26.656Z,11.36
2023-04-12T16:28:07.030Z,11.37
2023-04-12T16:29:47.441Z,11.44
2023-04-12T16:31:27.932Z,11.43
2023-04-12T16:33:08.332Z,11.43
2023-04-12T16:34:48.751Z,11.44
2023-04-12T16:36:32.200Z,11.47
2023-04-12T16:38:09.598Z,11.5
2023-04-12T16:39:50.059Z,11.56
2023-04-12T16:41:30.457Z,11.64
2023-04-12T16:43:10.865Z,11.69
2023-04-12T16:44:51.212Z,11.77
2023-04-12T16:46:31.668Z,11.81
2023-04-12T16:48:12.010Z,11.8
2023-04-12T16:49:52.374Z,11.81
2023-04-12T16:51:37.365Z,12
2023-04-12T16:53:13.080Z,12.33
2023-04-12T16:54:53.378Z,12.55
2023-04-12T16:56:33.696Z,12.7
2023-04-12T16:58:14.021Z,12.7
2023-04-12T16:59:54.476Z,12.87
2023-04-12T17:01:34.879Z,12.96
2023-04-12T17:03:16.592Z,12.93
2023-04-12T17:04:55.694Z,12.91
2023-04-12T17:06:36.067Z,12.93
2023-04-12T17:08:16.466Z,12.87
2023-04-12T17:09:56.889Z,12.86
2023-04-12T17:11:37.269Z,12.79
2023-04-12T17:13:20.068Z,12.73
2023-04-12T17:14:58.106Z,12.6
2023-04-12T17:16:38.532Z,12.48
2023-04-12T17:18:18.826Z,12.31
2023-04-12T17:19:59.213Z,12.18
2023-04-12T17:21:39.676Z,12.02
2023-04-12T17:23:20.049Z,11.87
2023-04-12T17:25:00.556Z,11.76
2023-04-12T17:26:41.056Z,11.64
2023-04-12T17:28:21.504Z,11.5
2023-04-12T17:30:01.990Z,11.36
2023-04-12T17:31:42.368Z,11.23
2023-04-12T17:33:22.849Z,11.15
2023-04-12T17:35:03.245Z,11.04
2023-04-12T17:36:43.648Z,10.88
2023-04-12T17:38:23.992Z,10.78
2023-04-12T17:40:04.552Z,10.68
2023-04-12T17:41:44.988Z,10.57
2023-04-12T17:43:25.404Z,10.53
2023-04-12T17:45:05.716Z,10.5
2023-04-12T17:46:46.146Z,10.43
2023-04-12T17:48:26.440Z,10.26
2023-04-12T17:50:06.863Z,10.07
2023-04-12T17:51:47.256Z,9.92
2023-04-12T17:53:27.687Z,9.78
2023-04-12T17:55:08.075Z,9.57
2023-04-12T17:56:48.488Z,9.45
2023-04-12T17:58:28.938Z,9.34
2023-04-12T18:00:09.361Z,9.2
2023-04-12T18:01:49.748Z,9.11
2023-04-12T18:03:30.327Z,9.03
2023-04-12T18:05:10.451Z,8.9
2023-04-12T18:06:50.789Z,8.84
2023-04-12T18:08:31.322Z,8.79
2023-04-12T18:10:11.669Z,8.72
2023-04-12T18:11:52.046Z,8.68
2023-04-12T18:13:32.426Z,8.65
2023-04-12T18:15:12.814Z,8.61
2023-04-12T18:16:53.194Z,8.56
2023-04-12T18:18:33.579Z,8.54
2023-04-12T18:20:14.016Z,8.49
2023-04-12T18:21:54.400Z,8.47
2023-04-12T18:23:34.900Z,8.44
2023-04-12T18:25:15.286Z,8.4
2023-04-12T18:26:55.634Z,8.34
2023-04-12T18:28:36.023Z,8.31
2023-04-12T18:30:16.425Z,8.33
2023-04-12T18:31:56.912Z,8.3
2023-04-12T18:33:37.256Z,8.27
2023-04-12T18:35:17.597Z,8.27
2023-04-12T18:36:57.858Z,8.24
2023-04-12T18:38:38.264Z,8.21
2023-04-12T18:40:18.686Z,8.18
2023-04-12T18:41:59.103Z,8.15
2023-04-12T18:43:39.476Z,8.15
2023-04-12T18:45:19.924Z,8.13
2023-04-12T18:47:00.408Z,8.1
2023-04-12T18:48:40.682Z,8.05
2023-04-12T18:50:21.043Z,8.03
2023-04-12T18:52:01.477Z,8
2023-04-12T18:53:41.936Z,7.97
2023-04-12T18:55:22.279Z,7.87
2023-04-12T18:57:02.763Z,7.85
2023-04-12T18:58:54.570Z,7.79
2023-04-12T19:00:23.667Z,7.75
2023-04-12T19:02:04.081Z,7.7
2023-04-12T19:03:44.482Z,7.65
2023-04-12T19:05:24.723Z,7.63
2023-04-12T19:07:05.109Z,7.58
2023-04-12T19:08:45.520Z,7.54
2023-04-12T19:10:25.911Z,7.46
2023-04-12T19:12:06.350Z,7.42
2023-04-12T19:13:46.782Z,7.38
2023-04-12T19:15:27.222Z,7.34
2023-04-12T19:17:07.557Z,7.32
2023-04-12T19:18:47.958Z,7.25
2023-04-12T19:20:28.363Z,7.27
2023-04-12T19:22:11.876Z,7.21
2023-04-12T19:23:49.345Z,7.15
2023-04-12T19:25:29.672Z,7.14
2023-04-12T19:27:10.081Z,7.1
2023-04-12T19:28:50.410Z,7.07
2023-04-12T19:30:30.749Z,7.03
2023-04-12T19:32:11.185Z,6.98
2023-04-12T19:33:51.685Z,6.94
2023-04-12T19:35:32.057Z,6.86
2023-04-12T19:37:12.465Z,6.72
2023-04-12T19:38:52.903Z,6.62
2023-04-12T19:40:33.248Z,6.55
2023-04-12T19:42:13.692Z,6.49
2023-04-12T19:43:54.072Z,6.43
2023-04-12T19:45:34.565Z,6.31
2023-04-12T19:47:14.955Z,6.22
2023-04-12T19:48:55.283Z,6.11
2023-04-12T19:50:35.669Z,5.98
2023-04-12T19:52:16.021Z,5.91
2023-04-12T19:53:56.671Z,5.84
2023-04-12T19:55:36.891Z,5.8
2023-04-12T19:57:17.339Z,5.74
2023-04-12T19:58:57.970Z,5.73
2023-04-12T20:00:38.055Z,5.66
2023-04-12T20:02:18.469Z,5.64
2023-04-12T20:03:58.870Z,5.57
2023-04-12T20:05:39.196Z,5.5
2023-04-12T20:07:19.497Z,5.5
2023-04-12T20:09:00.253Z,5.45
2023-04-12T20:10:40.365Z,5.36
2023-04-12T20:12:20.810Z,5.29
2023-04-12T20:14:01.242Z,5.21
2023-04-12T20:15:41.682Z,5.19
2023-04-12T20:17:22.087Z,5.12
2023-04-12T20:19:02.511Z,5.07
2023-04-12T20:20:42.950Z,4.99
2023-04-12T20:22:23.387Z,4.95
2023-04-12T20:24:03.796Z,4.85
2023-04-12T20:25:44.225Z,4.83
2023-04-12T20:27:24.594Z,4.77
2023-04-12T20:29:04.976Z,4.7
2023-04-12T20:30:45.381Z,4.63
2023-04-12T20:32:25.729Z,4.6
2023-04-12T20:34:06.087Z,4.53
2023-04-12T20:35:46.550Z,4.5
2023-04-12T20:37:26.921Z,4.47
2023-04-12T20:39:07.375Z,4.5
2023-04-12T20:40:47.845Z,4.49
2023-04-12T20:42:28.234Z,4.46
2023-04-12T20:44:08.670Z,4.43
2023-04-12T20:45:49.104Z,4.49
2023-04-12T20:47:29.393Z,4.52
2023-04-12T20:49:09.728Z,4.56
2023-04-12T20:50:50.090Z,4.64
2023-04-12T20:52:30.412Z,4.68
2023-04-12T20:54:10.847Z,4.77
2023-04-12T20:55:51.239Z,4.8
2023-04-12T20:57:31.658Z,4.84
2023-04-12T20:59:12.051Z,4.88
2023-04-12T21:00:52.412Z,4.88
2023-04-12T21:02:32.971Z,4.94
2023-04-12T21:04:13.235Z,4.99
2023-04-12T21:05:53.570Z,5.01
2023-04-12T21:07:34.009Z,5.04
2023-04-12T21:09:14.352Z,5.1
2023-04-12T21:10:54.705Z,5.11
2023-04-12T21:12:35.103Z,5.12
2023-04-12T21:14:15.501Z,5.14
2023-04-12T21:15:55.967Z,5.21
2023-04-12T21:17:36.470Z,5.31
2023-04-12T21:19:16.837Z,5.45
2023-04-12T21:20:57.294Z,5.53
2023-04-12T21:22:37.761Z,5.54
2023-04-12T21:24:18.132Z,5.53
2023-04-12T21:25:58.600Z,5.54
2023-04-12T21:27:38.961Z,5.5
2023-04-12T21:29:19.403Z,5.5
2023-04-12T21:30:59.771Z,5.46
2023-04-12T21:32:40.244Z,5.42
2023-04-12T21:34:20.486Z,5.39
2023-04-12T21:36:00.885Z,5.31
2023-04-12T21:37:41.301Z,5.26
2023-04-12T21:39:21.675Z,5.21
2023-04-12T21:41:01.944Z,5.16
2023-04-12T21:42:42.233Z,5.1
2023-04-12T21:44:22.572Z,4.99
2023-04-12T21:46:03.006Z,4.96
2023-04-12T21:47:43.337Z,4.92
2023-04-12T21:49:23.630Z,4.85
2023-04-12T21:51:04.037Z,4.84
2023-04-12T21:52:44.455Z,4.78
2023-04-12T21:54:24.928Z,4.7
2023-04-12T21:56:05.345Z,4.65
2023-04-12T21:57:45.776Z,4.61
2023-04-12T21:59:26.126Z,4.59
2023-04-12T22:01:06.613Z,4.54
2023-04-12T22:02:47.180Z,4.47
2023-04-12T22:04:27.485Z,4.4
2023-04-12T22:06:08.017Z,4.3
2023-04-12T22:07:48.425Z,4.25
2023-04-12T22:09:28.843Z,4.17